sensor_id;sensor_type;location;lat;lon;timestamp;temperature;humidity
37158;DHT22;23050;51.776;22.638;2022-07-12T00:02:05;11.60;99.90
37158;DHT22;23050;51.776;22.638;2022-07-12T00:04:31;11.50;99.90
37158;DHT22;23050;51.776;22.638;2022-07-12T00:06:57;11.60;99.90
37158;DHT22;23050;51.776;22.638;2022-07-12T00:09:22;11.60;99.90
37158;DHT22;23050;51.776;22.638;2022-07-12T00:11:48;11.50;99.90
37158;DHT22;23050;51.776;22.638;2022-07-12T00:14:13;11.50;99.90
37158;DHT22;23050;51.776;22.638;2022-07-12T00:16:39;11.50;99.90
37158;DHT22;23050;51.776;22.638;2022-07-12T00:19:05;11.40;99.90
37158;DHT22;23050;51.776;22.638;2022-07-12T00:21:30;11.50;99.90
37158;DHT22;23050;51.776;22.638;2022-07-12T00:23:56;11.50;99.90
37158;DHT22;23050;51.776;22.638;2022-07-12T00:26:22;11.50;99.90
37158;DHT22;23050;51.776;22.638;2022-07-12T00:28:48;11.40;99.90
37158;DHT22;23050;51.776;22.638;2022-07-12T00:31:13;11.40;99.90
37158;DHT22;23050;51.776;22.638;2022-07-12T00:33:39;11.40;99.90
37158;DHT22;23050;51.776;22.638;2022-07-12T00:36:05;11.30;99.90
37158;DHT22;23050;51.776;22.638;2022-07-12T00:38:31;11.30;99.90
37158;DHT22;23050;51.776;22.638;2022-07-12T00:40:57;11.30;99.90
37158;DHT22;23050;51.776;22.638;2022-07-12T00:43:22;11.40;99.90
37158;DHT22;23050;51.776;22.638;2022-07-12T00:45:48;11.30;99.90
37158;DHT22;23050;51.776;22.638;2022-07-12T00:48:15;11.30;99.90
37158;DHT22;23050;51.776;22.638;2022-07-12T00:50:44;11.30;99.90
37158;DHT22;23050;51.776;22.638;2022-07-12T00:53:10;11.30;99.90
37158;DHT22;23050;51.776;22.638;2022-07-12T00:55:36;11.30;99.90
37158;DHT22;23050;51.776;22.638;2022-07-12T00:58:01;11.30;99.90
37158;DHT22;23050;51.776;22.638;2022-07-12T01:00:28;11.30;99.90
37158;DHT22;23050;51.776;22.638;2022-07-12T01:02:55;11.30;99.90
37158;DHT22;23050;51.776;22.638;2022-07-12T01:05:21;11.20;99.90
37158;DHT22;23050;51.776;22.638;2022-07-12T01:07:48;11.20;99.90
37158;DHT22;23050;51.776;22.638;2022-07-12T01:10:14;11.30;99.90
37158;DHT22;23050;51.776;22.638;2022-07-12T01:12:40;11.20;99.90
37158;DHT22;23050;51.776;22.638;2022-07-12T01:15:06;11.20;99.90
37158;DHT22;23050;51.776;22.638;2022-07-12T01:17:32;11.20;99.90
37158;DHT22;23050;51.776;22.638;2022-07-12T01:19:58;11.20;99.90
37158;DHT22;23050;51.776;22.638;2022-07-12T01:22:31;11.20;99.90
37158;DHT22;23050;51.776;22.638;2022-07-12T01:24:59;11.10;99.90
37158;DHT22;23050;51.776;22.638;2022-07-12T01:27:24;11.10;99.90
37158;DHT22;23050;51.776;22.638;2022-07-12T01:29:50;11.10;99.90
37158;DHT22;23050;51.776;22.638;2022-07-12T01:32:16;11.20;99.90
37158;DHT22;23050;51.776;22.638;2022-07-12T01:35:02;11.20;99.90
37158;DHT22;23050;51.776;22.638;2022-07-12T01:37:34;11.10;99.90
37158;DHT22;23050;51.776;22.638;2022-07-12T01:40:00;11.10;99.90
37158;DHT22;23050;51.776;22.638;2022-07-12T01:42:28;11.10;99.90
37158;DHT22;23050;51.776;22.638;2022-07-12T01:44:54;11.10;99.90
37158;DHT22;23050;51.776;22.638;2022-07-12T01:47:22;11.10;99.90
37158;DHT22;23050;51.776;22.638;2022-07-12T01:49:48;11.10;99.90
37158;DHT22;23050;51.776;22.638;2022-07-12T01:52:14;11.10;99.90
37158;DHT22;23050;51.776;22.638;2022-07-12T01:54:40;11.10;99.90
37158;DHT22;23050;51.776;22.638;2022-07-12T01:57:07;11.10;99.90
37158;DHT22;23050;51.776;22.638;2022-07-12T01:59:33;11.10;99.90
37158;DHT22;23050;51.776;22.638;2022-07-12T02:01:59;11.10;99.90
37158;DHT22;23050;51.776;22.638;2022-07-12T02:04:26;11.10;99.90
37158;DHT22;23050;51.776;22.638;2022-07-12T02:06:52;11.00;99.90
37158;DHT22;23050;51.776;22.638;2022-07-12T02:09:18;11.10;99.90
37158;DHT22;23050;51.776;22.638;2022-07-12T02:11:44;11.00;99.90
37158;DHT22;23050;51.776;22.638;2022-07-12T02:14:11;11.00;99.90
37158;DHT22;23050;51.776;22.638;2022-07-12T02:16:42;11.00;99.90
37158;DHT22;23050;51.776;22.638;2022-07-12T02:19:09;11.00;99.90
37158;DHT22;23050;51.776;22.638;2022-07-12T02:21:35;11.00;99.90
37158;DHT22;23050;51.776;22.638;2022-07-12T02:24:01;11.00;99.90
37158;DHT22;23050;51.776;22.638;2022-07-12T02:26:27;10.90;99.90
37158;DHT22;23050;51.776;22.638;2022-07-12T02:28:53;11.00;99.90
37158;DHT22;23050;51.776;22.638;2022-07-12T02:31:19;11.00;99.90
37158;DHT22;23050;51.776;22.638;2022-07-12T02:33:45;11.00;99.90
37158;DHT22;23050;51.776;22.638;2022-07-12T02:36:11;11.00;99.90
37158;DHT22;23050;51.776;22.638;2022-07-12T02:38:36;11.00;99.90
37158;DHT22;23050;51.776;22.638;2022-07-12T02:41:02;11.00;99.90
37158;DHT22;23050;51.776;22.638;2022-07-12T02:43:29;11.10;99.90
37158;DHT22;23050;51.776;22.638;2022-07-12T02:46:11;11.10;99.90
37158;DHT22;23050;51.776;22.638;2022-07-12T02:48:38;11.20;99.90
37158;DHT22;23050;51.776;22.638;2022-07-12T02:51:04;11.30;99.90
37158;DHT22;23050;51.776;22.638;2022-07-12T02:53:30;11.40;99.90
37158;DHT22;23050;51.776;22.638;2022-07-12T02:55:57;11.50;99.90
37158;DHT22;23050;51.776;22.638;2022-07-12T02:58:23;11.50;99.90
37158;DHT22;23050;51.776;22.638;2022-07-12T03:00:49;11.60;99.90
37158;DHT22;23050;51.776;22.638;2022-07-12T03:03:14;11.60;99.90
37158;DHT22;23050;51.776;22.638;2022-07-12T03:05:41;11.70;99.90
37158;DHT22;23050;51.776;22.638;2022-07-12T03:08:08;11.70;99.90
37158;DHT22;23050;51.776;22.638;2022-07-12T03:10:35;11.70;99.90
37158;DHT22;23050;51.776;22.638;2022-07-12T03:13:01;11.80;99.90
37158;DHT22;23050;51.776;22.638;2022-07-12T03:15:27;11.80;99.90
37158;DHT22;23050;51.776;22.638;2022-07-12T03:18:00;11.80;99.90
37158;DHT22;23050;51.776;22.638;2022-07-12T03:20:28;11.90;99.90
37158;DHT22;23050;51.776;22.638;2022-07-12T03:22:53;12.00;99.90
37158;DHT22;23050;51.776;22.638;2022-07-12T03:25:20;11.90;99.90
37158;DHT22;23050;51.776;22.638;2022-07-12T03:27:46;12.00;99.90
37158;DHT22;23050;51.776;22.638;2022-07-12T03:30:12;12.00;99.90
37158;DHT22;23050;51.776;22.638;2022-07-12T03:32:38;12.10;99.90
37158;DHT22;23050;51.776;22.638;2022-07-12T03:35:04;12.10;99.90
37158;DHT22;23050;51.776;22.638;2022-07-12T03:37:49;12.10;99.90
37158;DHT22;23050;51.776;22.638;2022-07-12T03:40:17;12.20;99.90
37158;DHT22;23050;51.776;22.638;2022-07-12T03:42:43;12.30;99.90
37158;DHT22;23050;51.776;22.638;2022-07-12T03:45:11;12.20;99.90
37158;DHT22;23050;51.776;22.638;2022-07-12T03:47:36;12.30;99.90
37158;DHT22;23050;51.776;22.638;2022-07-12T03:50:10;12.30;99.90
37158;DHT22;23050;51.776;22.638;2022-07-12T03:52:38;12.30;99.90
37158;DHT22;23050;51.776;22.638;2022-07-12T03:55:04;12.40;99.90
37158;DHT22;23050;51.776;22.638;2022-07-12T03:57:30;12.40;99.90
37158;DHT22;23050;51.776;22.638;2022-07-12T03:59:56;12.50;99.90
37158;DHT22;23050;51.776;22.638;2022-07-12T04:02:22;12.40;99.90
37158;DHT22;23050;51.776;22.638;2022-07-12T04:04:47;12.40;99.90
37158;DHT22;23050;51.776;22.638;2022-07-12T04:07:13;12.40;99.90
37158;DHT22;23050;51.776;22.638;2022-07-12T04:09:39;12.40;99.90
37158;DHT22;23050;51.776;22.638;2022-07-12T04:12:05;12.50;99.90
37158;DHT22;23050;51.776;22.638;2022-07-12T04:14:30;12.50;99.90
37158;DHT22;23050;51.776;22.638;2022-07-12T04:16:56;12.50;99.90
37158;DHT22;23050;51.776;22.638;2022-07-12T04:19:22;12.60;99.90
37158;DHT22;23050;51.776;22.638;2022-07-12T04:21:50;12.70;99.90
37158;DHT22;23050;51.776;22.638;2022-07-12T04:24:16;12.60;99.90
37158;DHT22;23050;51.776;22.638;2022-07-12T04:26:41;12.70;99.90
37158;DHT22;23050;51.776;22.638;2022-07-12T04:29:07;12.70;99.90
37158;DHT22;23050;51.776;22.638;2022-07-12T04:31:32;12.70;99.90
37158;DHT22;23050;51.776;22.638;2022-07-12T04:33:58;12.80;99.90
37158;DHT22;23050;51.776;22.638;2022-07-12T04:36:24;12.80;99.90
37158;DHT22;23050;51.776;22.638;2022-07-12T04:38:49;12.90;99.90
37158;DHT22;23050;51.776;22.638;2022-07-12T04:41:15;12.90;99.90
37158;DHT22;23050;51.776;22.638;2022-07-12T04:43:40;13.00;99.90
37158;DHT22;23050;51.776;22.638;2022-07-12T04:46:07;13.10;99.90
37158;DHT22;23050;51.776;22.638;2022-07-12T04:48:33;13.00;99.90
37158;DHT22;23050;51.776;22.638;2022-07-12T04:50:58;13.10;99.90
37158;DHT22;23050;51.776;22.638;2022-07-12T04:53:24;13.10;99.90
37158;DHT22;23050;51.776;22.638;2022-07-12T04:55:49;13.30;99.90
37158;DHT22;23050;51.776;22.638;2022-07-12T04:58:15;13.30;99.90
37158;DHT22;23050;51.776;22.638;2022-07-12T05:00:41;13.50;99.90
37158;DHT22;23050;51.776;22.638;2022-07-12T05:03:06;13.40;99.90
37158;DHT22;23050;51.776;22.638;2022-07-12T05:05:32;13.50;99.90
37158;DHT22;23050;51.776;22.638;2022-07-12T05:07:57;13.50;99.90
37158;DHT22;23050;51.776;22.638;2022-07-12T05:10:23;13.50;99.90
37158;DHT22;23050;51.776;22.638;2022-07-12T05:12:48;13.50;99.90
37158;DHT22;23050;51.776;22.638;2022-07-12T05:15:14;13.50;99.90
37158;DHT22;23050;51.776;22.638;2022-07-12T05:17:39;13.50;99.90
37158;DHT22;23050;51.776;22.638;2022-07-12T05:20:05;13.50;99.90
37158;DHT22;23050;51.776;22.638;2022-07-12T05:22:31;13.50;99.90
37158;DHT22;23050;51.776;22.638;2022-07-12T05:24:57;13.50;99.90
37158;DHT22;23050;51.776;22.638;2022-07-12T05:27:22;13.50;99.90
37158;DHT22;23050;51.776;22.638;2022-07-12T05:29:48;13.50;99.90
37158;DHT22;23050;51.776;22.638;2022-07-12T05:32:13;13.50;99.90
37158;DHT22;23050;51.776;22.638;2022-07-12T05:34:39;13.40;99.90
37158;DHT22;23050;51.776;22.638;2022-07-12T05:37:05;13.40;99.90
37158;DHT22;23050;51.776;22.638;2022-07-12T05:39:30;13.50;99.90
37158;DHT22;23050;51.776;22.638;2022-07-12T05:41:56;13.40;99.90
37158;DHT22;23050;51.776;22.638;2022-07-12T05:44:21;13.40;99.90
37158;DHT22;23050;51.776;22.638;2022-07-12T05:46:48;13.40;99.90
37158;DHT22;23050;51.776;22.638;2022-07-12T05:49:13;13.50;99.90
37158;DHT22;23050;51.776;22.638;2022-07-12T05:51:39;13.60;99.90
37158;DHT22;23050;51.776;22.638;2022-07-12T05:54:23;13.60;99.90
37158;DHT22;23050;51.776;22.638;2022-07-12T05:56:48;13.50;99.90
37158;DHT22;23050;51.776;22.638;2022-07-12T05:59:17;13.50;99.90
37158;DHT22;23050;51.776;22.638;2022-07-12T06:01:42;13.50;99.90
37158;DHT22;23050;51.776;22.638;2022-07-12T06:04:08;13.50;99.90
37158;DHT22;23050;51.776;22.638;2022-07-12T06:06:33;13.60;99.90
37158;DHT22;23050;51.776;22.638;2022-07-12T06:08:59;13.60;99.90
37158;DHT22;23050;51.776;22.638;2022-07-12T06:11:25;13.70;99.90
37158;DHT22;23050;51.776;22.638;2022-07-12T06:13:50;13.80;99.90
37158;DHT22;23050;51.776;22.638;2022-07-12T06:16:16;13.90;99.90
37158;DHT22;23050;51.776;22.638;2022-07-12T06:18:42;13.90;99.90
37158;DHT22;23050;51.776;22.638;2022-07-12T06:21:07;14.00;99.90
37158;DHT22;23050;51.776;22.638;2022-07-12T06:23:33;14.20;99.90
37158;DHT22;23050;51.776;22.638;2022-07-12T06:25:59;14.40;99.90
37158;DHT22;23050;51.776;22.638;2022-07-12T06:28:24;14.40;99.90
37158;DHT22;23050;51.776;22.638;2022-07-12T06:30:50;14.50;99.90
37158;DHT22;23050;51.776;22.638;2022-07-12T06:33:15;14.50;99.90
37158;DHT22;23050;51.776;22.638;2022-07-12T06:35:41;14.70;99.90
37158;DHT22;23050;51.776;22.638;2022-07-12T06:38:07;14.70;99.90
37158;DHT22;23050;51.776;22.638;2022-07-12T06:40:32;14.90;99.90
37158;DHT22;23050;51.776;22.638;2022-07-12T06:42:58;14.90;99.90
37158;DHT22;23050;51.776;22.638;2022-07-12T06:45:24;14.90;99.90
37158;DHT22;23050;51.776;22.638;2022-07-12T06:47:50;15.00;99.90
37158;DHT22;23050;51.776;22.638;2022-07-12T06:50:16;15.00;99.90
37158;DHT22;23050;51.776;22.638;2022-07-12T06:52:41;15.00;99.90
37158;DHT22;23050;51.776;22.638;2022-07-12T06:55:08;15.00;99.90
37158;DHT22;23050;51.776;22.638;2022-07-12T06:57:33;15.10;99.90
37158;DHT22;23050;51.776;22.638;2022-07-12T07:00:00;15.00;99.90
37158;DHT22;23050;51.776;22.638;2022-07-12T07:02:26;15.00;99.90
37158;DHT22;23050;51.776;22.638;2022-07-12T07:04:52;15.10;99.90
37158;DHT22;23050;51.776;22.638;2022-07-12T07:07:18;15.00;99.90
37158;DHT22;23050;51.776;22.638;2022-07-12T07:09:43;15.00;99.90
37158;DHT22;23050;51.776;22.638;2022-07-12T07:12:09;15.10;99.90
37158;DHT22;23050;51.776;22.638;2022-07-12T07:14:35;15.20;99.90
37158;DHT22;23050;51.776;22.638;2022-07-12T07:17:00;15.30;99.90
37158;DHT22;23050;51.776;22.638;2022-07-12T07:19:26;15.40;99.90
37158;DHT22;23050;51.776;22.638;2022-07-12T07:21:55;15.50;99.90
37158;DHT22;23050;51.776;22.638;2022-07-12T07:24:21;15.40;99.90
37158;DHT22;23050;51.776;22.638;2022-07-12T07:26:47;15.40;99.90
37158;DHT22;23050;51.776;22.638;2022-07-12T07:29:13;15.30;99.90
37158;DHT22;23050;51.776;22.638;2022-07-12T07:31:57;15.30;99.90
37158;DHT22;23050;51.776;22.638;2022-07-12T07:34:23;15.30;99.90
37158;DHT22;23050;51.776;22.638;2022-07-12T07:36:50;15.30;99.90
37158;DHT22;23050;51.776;22.638;2022-07-12T07:39:15;15.40;99.90
37158;DHT22;23050;51.776;22.638;2022-07-12T07:41:41;15.40;99.90
37158;DHT22;23050;51.776;22.638;2022-07-12T07:44:06;15.40;99.90
37158;DHT22;23050;51.776;22.638;2022-07-12T07:46:32;15.40;99.90
37158;DHT22;23050;51.776;22.638;2022-07-12T07:48:58;15.30;99.90
37158;DHT22;23050;51.776;22.638;2022-07-12T07:51:23;15.30;99.90
37158;DHT22;23050;51.776;22.638;2022-07-12T07:53:49;15.40;99.90
37158;DHT22;23050;51.776;22.638;2022-07-12T07:56:15;15.40;99.90
37158;DHT22;23050;51.776;22.638;2022-07-12T07:58:40;15.40;99.90
37158;DHT22;23050;51.776;22.638;2022-07-12T08:01:06;15.40;99.90
37158;DHT22;23050;51.776;22.638;2022-07-12T08:03:32;15.50;99.90
37158;DHT22;23050;51.776;22.638;2022-07-12T08:05:58;15.40;99.90
37158;DHT22;23050;51.776;22.638;2022-07-12T08:08:26;15.50;99.90
37158;DHT22;23050;51.776;22.638;2022-07-12T08:10:52;15.60;99.90
37158;DHT22;23050;51.776;22.638;2022-07-12T08:13:17;15.60;99.90
37158;DHT22;23050;51.776;22.638;2022-07-12T08:15:43;15.60;99.90
37158;DHT22;23050;51.776;22.638;2022-07-12T08:18:08;15.70;99.90
37158;DHT22;23050;51.776;22.638;2022-07-12T08:20:34;15.90;99.90
37158;DHT22;23050;51.776;22.638;2022-07-12T08:23:00;16.10;99.90
37158;DHT22;23050;51.776;22.638;2022-07-12T08:25:25;16.50;99.90
37158;DHT22;23050;51.776;22.638;2022-07-12T08:27:51;16.80;99.90
37158;DHT22;23050;51.776;22.638;2022-07-12T08:30:17;16.90;99.90
37158;DHT22;23050;51.776;22.638;2022-07-12T08:32:44;17.00;99.90
37158;DHT22;23050;51.776;22.638;2022-07-12T08:35:09;16.70;99.90
37158;DHT22;23050;51.776;22.638;2022-07-12T08:37:35;16.70;99.90
37158;DHT22;23050;51.776;22.638;2022-07-12T08:40:01;16.70;99.90
37158;DHT22;23050;51.776;22.638;2022-07-12T08:42:26;16.60;99.90
37158;DHT22;23050;51.776;22.638;2022-07-12T08:44:56;16.50;99.90
37158;DHT22;23050;51.776;22.638;2022-07-12T08:47:22;16.50;99.90
37158;DHT22;23050;51.776;22.638;2022-07-12T08:52:40;16.70;99.90
37158;DHT22;23050;51.776;22.638;2022-07-12T08:55:23;17.00;99.90
37158;DHT22;23050;51.776;22.638;2022-07-12T08:57:51;17.20;99.90
37158;DHT22;23050;51.776;22.638;2022-07-12T09:00:17;17.30;99.90
37158;DHT22;23050;51.776;22.638;2022-07-12T09:02:45;17.60;99.90
37158;DHT22;23050;51.776;22.638;2022-07-12T09:05:12;17.90;99.90
37158;DHT22;23050;51.776;22.638;2022-07-12T09:07:38;18.00;99.90
37158;DHT22;23050;51.776;22.638;2022-07-12T09:10:04;18.00;99.90
37158;DHT22;23050;51.776;22.638;2022-07-12T09:12:30;18.20;99.90
37158;DHT22;23050;51.776;22.638;2022-07-12T09:17:36;18.20;99.90
37158;DHT22;23050;51.776;22.638;2022-07-12T09:20:02;18.00;99.90
37158;DHT22;23050;51.776;22.638;2022-07-12T09:22:28;17.90;99.90
37158;DHT22;23050;51.776;22.638;2022-07-12T09:24:54;18.00;99.90
37158;DHT22;23050;51.776;22.638;2022-07-12T09:27:26;18.00;99.90
37158;DHT22;23050;51.776;22.638;2022-07-12T09:29:52;17.90;99.90
37158;DHT22;23050;51.776;22.638;2022-07-12T09:32:18;17.80;99.90
37158;DHT22;23050;51.776;22.638;2022-07-12T09:35:03;17.80;99.90
37158;DHT22;23050;51.776;22.638;2022-07-12T09:37:48;17.90;99.90
37158;DHT22;23050;51.776;22.638;2022-07-12T09:40:14;18.10;99.90
37158;DHT22;23050;51.776;22.638;2022-07-12T09:42:40;18.00;99.90
37158;DHT22;23050;51.776;22.638;2022-07-12T09:45:09;18.10;99.90
37158;DHT22;23050;51.776;22.638;2022-07-12T09:47:36;18.10;99.90
37158;DHT22;23050;51.776;22.638;2022-07-12T09:50:03;18.20;99.90
37158;DHT22;23050;51.776;22.638;2022-07-12T09:52:30;18.30;99.90
37158;DHT22;23050;51.776;22.638;2022-07-12T09:54:57;18.40;99.90
37158;DHT22;23050;51.776;22.638;2022-07-12T09:57:29;18.60;99.90
37158;DHT22;23050;51.776;22.638;2022-07-12T09:59:57;18.60;99.90
37158;DHT22;23050;51.776;22.638;2022-07-12T10:02:23;18.70;99.90
37158;DHT22;23050;51.776;22.638;2022-07-12T10:04:49;18.60;99.90
37158;DHT22;23050;51.776;22.638;2022-07-12T10:07:15;18.70;99.90
37158;DHT22;23050;51.776;22.638;2022-07-12T10:09:50;18.80;99.90
37158;DHT22;23050;51.776;22.638;2022-07-12T10:12:17;18.80;99.90
37158;DHT22;23050;51.776;22.638;2022-07-12T10:14:44;18.80;99.90
37158;DHT22;23050;51.776;22.638;2022-07-12T10:17:11;18.80;99.90
37158;DHT22;23050;51.776;22.638;2022-07-12T10:19:38;18.80;99.90
37158;DHT22;23050;51.776;22.638;2022-07-12T10:22:06;18.70;99.90
37158;DHT22;23050;51.776;22.638;2022-07-12T10:29:43;18.70;99.90
37158;DHT22;23050;51.776;22.638;2022-07-12T10:32:25;18.70;99.90
37158;DHT22;23050;51.776;22.638;2022-07-12T10:34:58;18.60;99.90
37158;DHT22;23050;51.776;22.638;2022-07-12T10:37:25;18.70;99.90
37158;DHT22;23050;51.776;22.638;2022-07-12T10:42:35;19.10;99.90
37158;DHT22;23050;51.776;22.638;2022-07-12T10:45:15;19.10;99.90
37158;DHT22;23050;51.776;22.638;2022-07-12T10:48:00;19.00;99.90
37158;DHT22;23050;51.776;22.638;2022-07-12T10:53:23;18.90;99.90
37158;DHT22;23050;51.776;22.638;2022-07-12T11:01:20;19.20;99.90
37158;DHT22;23050;51.776;22.638;2022-07-12T11:03:48;19.20;99.90
37158;DHT22;23050;51.776;22.638;2022-07-12T11:06:22;19.10;99.90
37158;DHT22;23050;51.776;22.638;2022-07-12T11:08:51;19.10;99.90
37158;DHT22;23050;51.776;22.638;2022-07-12T11:11:18;19.00;99.90
37158;DHT22;23050;51.776;22.638;2022-07-12T11:13:44;19.00;99.90
37158;DHT22;23050;51.776;22.638;2022-07-12T11:16:09;19.10;99.90
37158;DHT22;23050;51.776;22.638;2022-07-12T11:18:36;19.00;99.90
37158;DHT22;23050;51.776;22.638;2022-07-12T11:21:02;19.00;99.90
37158;DHT22;23050;51.776;22.638;2022-07-12T11:23:29;19.20;99.90
37158;DHT22;23050;51.776;22.638;2022-07-12T11:26:00;19.10;99.90
37158;DHT22;23050;51.776;22.638;2022-07-12T11:28:28;19.20;99.90
37158;DHT22;23050;51.776;22.638;2022-07-12T11:31:01;19.10;99.90
37158;DHT22;23050;51.776;22.638;2022-07-12T11:33:30;19.10;99.90
37158;DHT22;23050;51.776;22.638;2022-07-12T11:36:00;19.20;99.90
37158;DHT22;23050;51.776;22.638;2022-07-12T11:38:28;19.30;99.90
37158;DHT22;23050;51.776;22.638;2022-07-12T11:40:55;19.30;99.90
37158;DHT22;23050;51.776;22.638;2022-07-12T11:43:22;19.30;99.90
37158;DHT22;23050;51.776;22.638;2022-07-12T11:45:48;19.20;99.90
37158;DHT22;23050;51.776;22.638;2022-07-12T11:48:14;19.20;99.90
37158;DHT22;23050;51.776;22.638;2022-07-12T11:50:43;19.20;99.90
37158;DHT22;23050;51.776;22.638;2022-07-12T11:53:20;19.20;99.90
37158;DHT22;23050;51.776;22.638;2022-07-12T11:55:49;19.20;99.90
37158;DHT22;23050;51.776;22.638;2022-07-12T11:58:15;19.10;99.90
37158;DHT22;23050;51.776;22.638;2022-07-12T12:00:42;19.00;99.90
37158;DHT22;23050;51.776;22.638;2022-07-12T12:03:08;19.10;99.90
37158;DHT22;23050;51.776;22.638;2022-07-12T12:05:34;19.00;99.90
37158;DHT22;23050;51.776;22.638;2022-07-12T12:08:01;18.90;99.90
37158;DHT22;23050;51.776;22.638;2022-07-12T12:10:27;18.90;99.90
37158;DHT22;23050;51.776;22.638;2022-07-12T12:12:55;18.80;99.90
37158;DHT22;23050;51.776;22.638;2022-07-12T12:15:29;18.70;99.90
37158;DHT22;23050;51.776;22.638;2022-07-12T12:17:59;18.60;99.90
37158;DHT22;23050;51.776;22.638;2022-07-12T12:20:31;18.30;99.90
37158;DHT22;23050;51.776;22.638;2022-07-12T12:23:01;18.00;99.90
37158;DHT22;23050;51.776;22.638;2022-07-12T12:25:28;17.80;99.90
37158;DHT22;23050;51.776;22.638;2022-07-12T12:28:00;17.70;99.90
37158;DHT22;23050;51.776;22.638;2022-07-12T12:30:30;17.70;99.90
37158;DHT22;23050;51.776;22.638;2022-07-12T12:32:58;17.80;99.90
37158;DHT22;23050;51.776;22.638;2022-07-12T12:35:34;17.80;99.90
37158;DHT22;23050;51.776;22.638;2022-07-12T12:38:10;17.80;99.90
37158;DHT22;23050;51.776;22.638;2022-07-12T12:40:36;17.90;99.90
37158;DHT22;23050;51.776;22.638;2022-07-12T12:43:10;17.90;99.90
37158;DHT22;23050;51.776;22.638;2022-07-12T12:45:52;17.90;99.90
37158;DHT22;23050;51.776;22.638;2022-07-12T12:48:25;18.00;99.90
37158;DHT22;23050;51.776;22.638;2022-07-12T12:50:53;18.10;99.90
37158;DHT22;23050;51.776;22.638;2022-07-12T12:53:23;18.20;99.90
37158;DHT22;23050;51.776;22.638;2022-07-12T12:55:51;18.20;99.90
37158;DHT22;23050;51.776;22.638;2022-07-12T12:58:18;18.30;99.90
37158;DHT22;23050;51.776;22.638;2022-07-12T13:00:45;18.20;99.90
37158;DHT22;23050;51.776;22.638;2022-07-12T13:03:12;18.30;99.90
37158;DHT22;23050;51.776;22.638;2022-07-12T13:05:39;18.20;99.90
37158;DHT22;23050;51.776;22.638;2022-07-12T13:08:07;18.20;99.90
37158;DHT22;23050;51.776;22.638;2022-07-12T13:10:34;18.20;99.90
37158;DHT22;23050;51.776;22.638;2022-07-12T13:13:00;18.20;99.90
37158;DHT22;23050;51.776;22.638;2022-07-12T13:15:27;18.30;99.90
37158;DHT22;23050;51.776;22.638;2022-07-12T13:17:53;18.40;99.90
37158;DHT22;23050;51.776;22.638;2022-07-12T13:20:19;18.50;99.90
37158;DHT22;23050;51.776;22.638;2022-07-12T13:22:44;18.40;99.90
37158;DHT22;23050;51.776;22.638;2022-07-12T13:25:12;18.40;99.90
37158;DHT22;23050;51.776;22.638;2022-07-12T13:27:38;18.30;99.90
37158;DHT22;23050;51.776;22.638;2022-07-12T13:30:05;17.90;99.90
37158;DHT22;23050;51.776;22.638;2022-07-12T13:32:33;17.70;99.90
37158;DHT22;23050;51.776;22.638;2022-07-12T13:34:59;17.50;99.90
37158;DHT22;23050;51.776;22.638;2022-07-12T13:37:25;17.40;99.90
37158;DHT22;23050;51.776;22.638;2022-07-12T13:39:50;17.30;99.90
37158;DHT22;23050;51.776;22.638;2022-07-12T13:42:35;17.10;99.90
37158;DHT22;23050;51.776;22.638;2022-07-12T13:45:00;17.00;99.90
37158;DHT22;23050;51.776;22.638;2022-07-12T13:47:26;16.90;99.90
37158;DHT22;23050;51.776;22.638;2022-07-12T13:49:52;16.80;99.90
37158;DHT22;23050;51.776;22.638;2022-07-12T13:52:17;16.60;99.90
37158;DHT22;23050;51.776;22.638;2022-07-12T13:54:44;16.50;99.90
37158;DHT22;23050;51.776;22.638;2022-07-12T13:57:10;16.20;99.90
37158;DHT22;23050;51.776;22.638;2022-07-12T13:59:36;16.20;99.90
37158;DHT22;23050;51.776;22.638;2022-07-12T14:02:03;16.10;99.90
37158;DHT22;23050;51.776;22.638;2022-07-12T14:04:28;16.10;99.90
37158;DHT22;23050;51.776;22.638;2022-07-12T14:06:55;16.10;99.90
37158;DHT22;23050;51.776;22.638;2022-07-12T14:09:20;15.90;99.90
37158;DHT22;23050;51.776;22.638;2022-07-12T14:11:46;15.90;99.90
37158;DHT22;23050;51.776;22.638;2022-07-12T14:14:11;15.80;99.90
37158;DHT22;23050;51.776;22.638;2022-07-12T14:16:37;15.70;99.90
37158;DHT22;23050;51.776;22.638;2022-07-12T14:19:03;15.70;99.90
37158;DHT22;23050;51.776;22.638;2022-07-12T14:21:30;15.70;99.90
37158;DHT22;23050;51.776;22.638;2022-07-12T14:23:56;15.70;99.90
37158;DHT22;23050;51.776;22.638;2022-07-12T14:26:26;15.60;99.90
37158;DHT22;23050;51.776;22.638;2022-07-12T14:28:52;15.60;99.90
37158;DHT22;23050;51.776;22.638;2022-07-12T14:31:17;15.60;99.90
37158;DHT22;23050;51.776;22.638;2022-07-12T14:33:44;15.50;99.90
37158;DHT22;23050;51.776;22.638;2022-07-12T14:36:09;15.50;99.90
37158;DHT22;23050;51.776;22.638;2022-07-12T14:38:35;15.60;99.90
37158;DHT22;23050;51.776;22.638;2022-07-12T14:41:01;15.60;99.90
37158;DHT22;23050;51.776;22.638;2022-07-12T14:43:27;15.50;99.90
37158;DHT22;23050;51.776;22.638;2022-07-12T14:45:52;15.50;99.90
37158;DHT22;23050;51.776;22.638;2022-07-12T14:48:18;15.40;99.90
37158;DHT22;23050;51.776;22.638;2022-07-12T14:50:43;15.40;99.90
37158;DHT22;23050;51.776;22.638;2022-07-12T14:53:09;15.40;99.90
37158;DHT22;23050;51.776;22.638;2022-07-12T14:55:35;15.40;99.90
37158;DHT22;23050;51.776;22.638;2022-07-12T14:58:01;15.40;99.90
37158;DHT22;23050;51.776;22.638;2022-07-12T15:00:27;15.50;99.90
37158;DHT22;23050;51.776;22.638;2022-07-12T15:02:53;15.50;99.90
37158;DHT22;23050;51.776;22.638;2022-07-12T15:05:25;15.50;99.90
37158;DHT22;23050;51.776;22.638;2022-07-12T15:07:51;15.50;99.90
37158;DHT22;23050;51.776;22.638;2022-07-12T15:10:16;15.40;99.90
37158;DHT22;23050;51.776;22.638;2022-07-12T15:12:42;15.40;99.90
37158;DHT22;23050;51.776;22.638;2022-07-12T15:15:07;15.40;99.90
37158;DHT22;23050;51.776;22.638;2022-07-12T15:17:33;15.40;99.90
37158;DHT22;23050;51.776;22.638;2022-07-12T15:19:59;15.40;99.90
37158;DHT22;23050;51.776;22.638;2022-07-12T15:22:24;15.40;99.90
37158;DHT22;23050;51.776;22.638;2022-07-12T15:24:50;15.40;99.90
37158;DHT22;23050;51.776;22.638;2022-07-12T15:27:16;15.50;99.90
37158;DHT22;23050;51.776;22.638;2022-07-12T15:29:42;15.50;99.90
37158;DHT22;23050;51.776;22.638;2022-07-12T15:32:08;15.40;99.90
37158;DHT22;23050;51.776;22.638;2022-07-12T15:34:34;15.40;99.90
37158;DHT22;23050;51.776;22.638;2022-07-12T15:37:00;15.40;99.90